createdAt,value
2023-04-27T00:00:18.060Z,995.32
2023-04-27T00:01:18.088Z,995.34
2023-04-27T00:02:18.134Z,995.32
2023-04-27T00:03:18.249Z,995.34
2023-04-27T00:04:18.266Z,995.37
2023-04-27T00:05:18.260Z,995.34
2023-04-27T00:06:18.061Z,995.32
2023-04-27T00:07:18.012Z,995.34
2023-04-27T00:08:18.010Z,995.33
2023-04-27T00:09:17.995Z,995.33
2023-04-27T00:10:17.991Z,995.27
2023-04-27T00:11:17.986Z,995.35
2023-04-27T00:12:17.983Z,995.30
2023-04-27T00:13:17.963Z,995.25
2023-04-27T00:14:17.953Z,995.33
2023-04-27T00:15:17.964Z,995.31
2023-04-27T00:16:18.020Z,995.26
2023-04-27T00:17:17.957Z,995.23
2023-04-27T00:18:17.937Z,995.22
2023-04-27T00:19:17.947Z,995.21
2023-04-27T00:20:17.939Z,995.22
2023-04-27T00:21:17.895Z,995.18
2023-04-27T00:22:17.903Z,995.26
2023-04-27T00:23:17.880Z,995.29
2023-04-27T00:24:17.874Z,995.24
2023-04-27T00:25:17.914Z,995.22
2023-04-27T00:26:17.864Z,995.27
2023-04-27T00:27:17.863Z,995.27
2023-04-27T00:28:17.887Z,995.24
2023-04-27T00:29:17.848Z,995.19
2023-04-27T00:30:17.850Z,995.22
2023-04-27T00:31:17.885Z,995.19
2023-04-27T00:32:17.814Z,995.19
2023-04-27T00:33:17.813Z,995.16
2023-04-27T00:34:17.808Z,995.20
2023-04-27T00:35:17.804Z,995.20
2023-04-27T00:36:17.816Z,995.16
2023-04-27T00:37:17.791Z,995.17
2023-04-27T00:38:17.782Z,995.22
2023-04-27T00:39:17.766Z,995.15
2023-04-27T00:40:17.763Z,995.20
2023-04-27T00:41:17.800Z,995.20
2023-04-27T00:42:17.748Z,995.20
2023-04-27T00:43:17.750Z,995.15
2023-04-27T00:44:17.730Z,995.18
2023-04-27T00:45:17.729Z,995.21
2023-04-27T00:46:17.781Z,995.17
2023-04-27T00:47:17.728Z,995.19
2023-04-27T00:48:17.713Z,995.20
2023-04-27T00:49:17.702Z,995.12
2023-04-27T00:50:17.704Z,995.13
2023-04-27T00:51:17.705Z,995.14
2023-04-27T00:52:17.682Z,995.17
2023-04-27T00:53:17.677Z,995.18
2023-04-27T00:54:17.677Z,995.18
2023-04-27T00:55:17.655Z,995.20
2023-04-27T00:56:17.671Z,995.20
2023-04-27T00:57:17.641Z,995.18
2023-04-27T00:58:17.650Z,995.17
2023-04-27T00:59:17.627Z,995.11
2023-04-27T01:00:17.632Z,995.17
2023-04-27T01:01:17.666Z,995.18
2023-04-27T01:02:17.706Z,995.15
2023-04-27T01:03:17.759Z,995.19
2023-04-27T01:04:17.816Z,995.19
2023-04-27T01:05:17.595Z,995.16
2023-04-27T01:06:17.609Z,995.18
2023-04-27T01:07:17.581Z,995.20
2023-04-27T01:08:17.569Z,995.21
2023-04-27T01:09:17.556Z,995.21
2023-04-27T01:10:17.548Z,995.23
2023-04-27T01:11:17.581Z,995.23
2023-04-27T01:12:17.542Z,995.24
2023-04-27T01:13:17.527Z,995.22
2023-04-27T01:14:17.535Z,995.20
2023-04-27T01:15:17.511Z,995.29
2023-04-27T01:16:17.620Z,995.27
2023-04-27T01:17:17.506Z,995.23
2023-04-27T01:18:17.497Z,995.17
2023-04-27T01:19:17.489Z,995.19
2023-04-27T01:20:17.485Z,995.19
2023-04-27T01:21:17.498Z,995.16
2023-04-27T01:22:17.476Z,995.17
2023-04-27T01:23:17.749Z,995.24
2023-04-27T01:24:17.460Z,995.28
2023-04-27T01:25:17.459Z,995.27
2023-04-27T01:26:17.465Z,995.28
2023-04-27T01:27:17.431Z,995.29
2023-04-27T01:28:17.421Z,995.25
2023-04-27T01:29:17.427Z,995.31
2023-04-27T01:30:17.460Z,995.32
2023-04-27T01:31:17.439Z,995.31
2023-04-27T01:32:17.395Z,995.30
2023-04-27T01:33:17.391Z,995.35
2023-04-27T01:34:17.386Z,995.39
2023-04-27T01:35:17.388Z,995.39
2023-04-27T01:36:17.386Z,995.34
2023-04-27T01:37:17.362Z,995.34
2023-04-27T01:38:17.368Z,995.36
2023-04-27T01:39:17.349Z,995.43
2023-04-27T01:40:17.332Z,995.42
2023-04-27T01:41:17.357Z,995.39
2023-04-27T01:42:17.349Z,995.38
2023-04-27T01:43:17.350Z,995.33
2023-04-27T01:44:17.316Z,995.37
2023-04-27T01:45:17.308Z,995.39
2023-04-27T01:46:17.445Z,995.36
2023-04-27T01:47:17.310Z,995.41
2023-04-27T01:48:18.295Z,995.41
2023-04-27T01:49:17.428Z,995.42
2023-04-27T01:50:17.317Z,995.45
2023-04-27T01:51:17.390Z,995.39
2023-04-27T01:52:17.292Z,995.40
2023-04-27T01:53:17.235Z,995.43
2023-04-27T01:54:18.242Z,995.51
2023-04-27T01:55:17.245Z,995.51
2023-04-27T01:56:17.315Z,995.50
2023-04-27T01:57:17.309Z,995.47
2023-04-27T01:58:17.331Z,995.49
2023-04-27T01:59:17.390Z,995.43
2023-04-27T02:00:17.207Z,995.46
2023-04-27T02:01:17.501Z,995.42
2023-04-27T02:02:17.316Z,995.45
2023-04-27T02:03:17.484Z,995.42
2023-04-27T02:04:18.210Z,995.44
2023-04-27T02:05:17.253Z,995.47
2023-04-27T02:06:17.470Z,995.49
2023-04-27T02:07:17.293Z,995.48
2023-04-27T02:08:17.225Z,995.53
2023-04-27T02:09:17.204Z,995.49
2023-04-27T02:10:17.150Z,995.54
2023-04-27T02:11:17.243Z,995.54
2023-04-27T02:12:17.314Z,995.49
2023-04-27T02:13:17.226Z,995.61
2023-04-27T02:14:17.140Z,995.57
2023-04-27T02:15:17.259Z,995.54
2023-04-27T02:16:17.538Z,995.59
2023-04-27T02:17:17.338Z,995.56
2023-04-27T02:18:17.317Z,995.63
2023-04-27T02:19:17.254Z,995.65
2023-04-27T02:20:17.419Z,995.63
2023-04-27T02:21:17.311Z,995.67
2023-04-27T02:22:17.240Z,995.64
2023-04-27T02:23:18.008Z,995.66
2023-04-27T02:24:17.383Z,995.66
2023-04-27T02:25:17.265Z,995.66
2023-04-27T02:26:17.153Z,995.63
2023-04-27T02:27:17.115Z,995.63
2023-04-27T02:28:17.360Z,995.70
2023-04-27T02:29:17.157Z,995.64
2023-04-27T02:30:17.091Z,995.70
2023-04-27T02:31:17.296Z,995.76
2023-04-27T02:32:17.178Z,995.74
2023-04-27T02:33:17.114Z,995.82
2023-04-27T02:34:17.183Z,995.82
2023-04-27T02:35:16.970Z,995.84
2023-04-27T02:36:17.196Z,995.82
2023-04-27T02:37:16.935Z,995.83
2023-04-27T02:38:16.952Z,995.75
2023-04-27T02:39:17.466Z,995.80
2023-04-27T02:40:16.926Z,995.84
2023-04-27T02:41:16.938Z,995.82
2023-04-27T02:42:16.910Z,995.85
2023-04-27T02:43:16.902Z,995.84
2023-04-27T02:44:16.890Z,995.89
2023-04-27T02:45:16.893Z,995.87
2023-04-27T02:46:16.936Z,995.88
2023-04-27T02:47:16.865Z,995.85
2023-04-27T02:48:16.870Z,995.76
2023-04-27T02:49:16.845Z,995.88
2023-04-27T02:50:16.843Z,995.87
2023-04-27T02:51:16.866Z,995.95
2023-04-27T02:52:16.827Z,995.93
2023-04-27T02:53:16.832Z,995.96
2023-04-27T02:54:16.817Z,995.94
2023-04-27T02:55:16.821Z,995.98
2023-04-27T02:56:16.828Z,995.97
2023-04-27T02:57:16.806Z,996.00
2023-04-27T02:58:16.786Z,996.01
2023-04-27T02:59:16.783Z,995.96
2023-04-27T03:00:16.774Z,996.00
2023-04-27T03:01:16.805Z,995.99
2023-04-27T03:02:16.829Z,995.96
2023-04-27T03:03:16.943Z,995.92
2023-04-27T03:04:16.908Z,995.90
2023-04-27T03:05:16.738Z,995.88
2023-04-27T03:06:16.761Z,995.86
2023-04-27T03:07:16.721Z,995.81
2023-04-27T03:08:16.718Z,995.82
2023-04-27T03:09:16.848Z,995.81
2023-04-27T03:10:16.717Z,995.83
2023-04-27T03:11:16.712Z,995.84
2023-04-27T03:12:16.689Z,995.90
2023-04-27T03:13:16.892Z,995.86
2023-04-27T03:14:16.664Z,995.90
2023-04-27T03:15:16.702Z,995.88
2023-04-27T03:16:16.682Z,995.84
2023-04-27T03:17:16.641Z,995.79
2023-04-27T03:18:16.638Z,995.81
2023-04-27T03:19:16.633Z,995.89
2023-04-27T03:20:16.623Z,995.79
2023-04-27T03:21:16.871Z,995.92
2023-04-27T03:22:16.642Z,995.89
2023-04-27T03:23:16.621Z,995.90
2023-04-27T03:24:16.600Z,995.93
2023-04-27T03:25:16.593Z,995.97
2023-04-27T03:26:16.601Z,996.01
2023-04-27T03:27:16.579Z,995.97
2023-04-27T03:28:16.574Z,995.86
2023-04-27T03:29:16.550Z,995.96
2023-04-27T03:30:16.548Z,995.91
2023-04-27T03:31:16.612Z,995.87
2023-04-27T03:32:16.539Z,995.89
2023-04-27T03:33:16.532Z,995.85
2023-04-27T03:34:16.532Z,995.85
2023-04-27T03:35:16.514Z,995.80
2023-04-27T03:36:16.541Z,995.86
2023-04-27T03:37:16.506Z,995.79
2023-04-27T03:38:16.491Z,995.94
2023-04-27T03:39:16.572Z,995.85
2023-04-27T03:40:16.482Z,995.85
2023-04-27T03:41:16.536Z,995.86
2023-04-27T03:42:16.464Z,995.83
2023-04-27T03:43:16.471Z,995.87
2023-04-27T03:44:16.449Z,995.82
2023-04-27T03:45:16.448Z,995.87
2023-04-27T03:46:16.494Z,995.87
2023-04-27T03:47:16.442Z,995.84
2023-04-27T03:48:16.427Z,995.89
2023-04-27T03:49:16.426Z,995.83
2023-04-27T03:50:16.433Z,995.86
2023-04-27T03:51:16.418Z,995.84
2023-04-27T03:52:16.401Z,995.85
2023-04-27T03:53:16.421Z,995.82
2023-04-27T03:54:16.387Z,995.82
2023-04-27T03:55:16.376Z,995.83
2023-04-27T03:56:16.420Z,995.85
2023-04-27T03:57:16.431Z,995.83
2023-04-27T03:58:16.357Z,995.78
2023-04-27T03:59:16.551Z,995.82
2023-04-27T04:00:16.346Z,995.88
2023-04-27T04:01:16.378Z,995.87
2023-04-27T04:02:16.411Z,995.86
2023-04-27T04:03:16.590Z,995.88
2023-04-27T04:04:16.430Z,995.87
2023-04-27T04:05:16.361Z,995.86
2023-04-27T04:06:16.314Z,995.86
2023-04-27T04:07:16.306Z,995.82
2023-04-27T04:08:16.271Z,995.86
2023-04-27T04:09:17.267Z,995.84
2023-04-27T04:10:16.272Z,995.86
2023-04-27T04:11:16.343Z,995.93
2023-04-27T04:12:16.260Z,995.89
2023-04-27T04:13:16.284Z,995.90
2023-04-27T04:14:16.239Z,995.90
2023-04-27T04:15:16.241Z,995.92
2023-04-27T04:16:16.279Z,995.84
2023-04-27T04:17:16.269Z,995.82
2023-04-27T04:18:16.245Z,995.77
2023-04-27T04:19:16.492Z,995.83
2023-04-27T04:20:16.258Z,995.78
2023-04-27T04:21:16.194Z,995.69
2023-04-27T04:22:16.202Z,995.67
2023-04-27T04:23:16.185Z,995.71
2023-04-27T04:24:16.199Z,995.74
2023-04-27T04:25:16.182Z,995.77
2023-04-27T04:26:16.206Z,995.77
2023-04-27T04:27:16.156Z,995.83
2023-04-27T04:28:16.262Z,995.81
2023-04-27T04:29:16.489Z,995.84
2023-04-27T04:30:16.153Z,995.82
2023-04-27T04:31:16.267Z,995.81
2023-04-27T04:32:16.154Z,995.85
2023-04-27T04:33:17.368Z,995.88
2023-04-27T04:34:16.162Z,995.93
2023-04-27T04:35:16.157Z,996.00
2023-04-27T04:36:16.200Z,995.98
2023-04-27T04:37:16.110Z,995.94
2023-04-27T04:38:16.118Z,995.98
2023-04-27T04:39:16.530Z,995.98
2023-04-27T04:40:16.133Z,995.99
2023-04-27T04:41:16.077Z,996.07
2023-04-27T04:42:16.240Z,996.02
2023-04-27T04:43:16.245Z,996.04
2023-04-27T04:44:16.167Z,996.08
2023-04-27T04:45:16.098Z,996.09
2023-04-27T04:46:16.225Z,996.07
2023-04-27T04:47:16.168Z,996.10
2023-04-27T04:48:16.051Z,996.12
2023-04-27T04:49:16.328Z,996.15
2023-04-27T04:50:16.079Z,996.15
2023-04-27T04:51:16.254Z,996.20
2023-04-27T04:52:16.093Z,996.15
2023-04-27T04:53:16.864Z,996.28
2023-04-27T04:54:16.150Z,996.23
2023-04-27T04:55:16.113Z,996.26
2023-04-27T04:56:16.049Z,996.21
2023-04-27T04:57:16.043Z,996.23
2023-04-27T04:58:16.065Z,996.22
2023-04-27T04:59:16.163Z,996.19
2023-04-27T05:00:16.250Z,996.26
2023-04-27T05:01:16.112Z,996.27
2023-04-27T05:02:16.147Z,996.25
2023-04-27T05:03:16.323Z,996.29
2023-04-27T05:04:16.240Z,996.24
2023-04-27T05:05:16.124Z,996.28
2023-04-27T05:06:16.016Z,996.27
2023-04-27T05:07:17.802Z,996.28
2023-04-27T05:08:16.034Z,996.31
2023-04-27T05:09:16.060Z,996.29
2023-04-27T05:10:16.056Z,996.22
2023-04-27T05:11:15.849Z,996.25
2023-04-27T05:12:16.015Z,996.18
2023-04-27T05:13:15.836Z,996.19
2023-04-27T05:14:15.812Z,996.19
2023-04-27T05:15:15.814Z,996.17
2023-04-27T05:16:15.832Z,996.22
2023-04-27T05:17:15.839Z,996.28
2023-04-27T05:18:15.806Z,996.24
2023-04-27T05:19:15.983Z,996.25
2023-04-27T05:20:16.154Z,996.24
2023-04-27T05:21:15.758Z,996.29
2023-04-27T05:22:15.786Z,996.28
2023-04-27T05:23:15.749Z,996.29
2023-04-27T05:24:15.747Z,996.27
2023-04-27T05:25:15.735Z,996.33
2023-04-27T05:26:15.746Z,996.35
2023-04-27T05:27:15.748Z,996.34
2023-04-27T05:28:15.735Z,996.37
2023-04-27T05:29:16.036Z,996.43
2023-04-27T05:30:15.697Z,996.35
2023-04-27T05:31:15.708Z,996.40
2023-04-27T05:32:15.706Z,996.32
2023-04-27T05:33:15.749Z,996.39
2023-04-27T05:34:15.669Z,996.36
2023-04-27T05:35:15.773Z,996.33
2023-04-27T05:36:15.718Z,996.39
2023-04-27T05:37:15.734Z,996.34
2023-04-27T05:38:15.640Z,996.44
2023-04-27T05:39:15.828Z,996.49
2023-04-27T05:40:15.631Z,996.48
2023-04-27T05:41:15.629Z,996.49
2023-04-27T05:42:15.647Z,996.47
2023-04-27T05:43:15.620Z,996.48
2023-04-27T05:44:15.605Z,996.45
2023-04-27T05:45:15.603Z,996.40
2023-04-27T05:46:15.615Z,996.35
2023-04-27T05:47:16.616Z,996.41
2023-04-27T05:48:15.589Z,996.35
2023-04-27T05:49:15.833Z,996.35
2023-04-27T05:50:15.574Z,996.33
2023-04-27T05:51:15.582Z,996.36
2023-04-27T05:52:15.577Z,996.34
2023-04-27T05:53:15.542Z,996.38
2023-04-27T05:54:15.534Z,996.36
2023-04-27T05:55:16.542Z,996.35
2023-04-27T05:56:15.571Z,996.41
2023-04-27T05:57:15.565Z,996.38
2023-04-27T05:58:16.512Z,996.42
2023-04-27T05:59:15.993Z,996.42
2023-04-27T06:00:15.570Z,996.44
2023-04-27T06:01:15.504Z,996.39
2023-04-27T06:02:15.686Z,996.42
2023-04-27T06:03:15.627Z,996.44
2023-04-27T06:04:15.682Z,996.51
2023-04-27T06:05:15.539Z,996.44
2023-04-27T06:06:15.455Z,996.50
2023-04-27T06:08:15.442Z,996.46
2023-04-27T06:09:15.708Z,996.43
2023-04-27T06:10:15.430Z,996.47
2023-04-27T06:11:15.428Z,996.45
2023-04-27T06:12:15.435Z,996.55
2023-04-27T06:13:15.408Z,996.58
2023-04-27T06:14:15.402Z,996.50
2023-04-27T06:15:15.418Z,996.57
2023-04-27T06:16:15.421Z,996.61
2023-04-27T06:17:15.390Z,996.58
2023-04-27T06:18:15.419Z,996.59
2023-04-27T06:19:15.625Z,996.53
2023-04-27T06:20:15.390Z,996.54
2023-04-27T06:21:15.379Z,996.57
2023-04-27T06:22:15.382Z,996.60
2023-04-27T06:23:15.372Z,996.54
2023-04-27T06:24:15.326Z,996.52
2023-04-27T06:25:15.326Z,996.63
2023-04-27T06:26:15.320Z,996.65
2023-04-27T06:27:15.379Z,996.67
2023-04-27T06:28:15.299Z,996.71
2023-04-27T06:29:15.557Z,996.76
2023-04-27T06:30:15.278Z,996.74
2023-04-27T06:31:15.370Z,996.77
2023-04-27T06:32:15.292Z,996.71
2023-04-27T06:33:15.269Z,996.79
2023-04-27T06:34:15.262Z,996.80
2023-04-27T06:35:15.257Z,996.70
2023-04-27T06:36:15.243Z,996.75
2023-04-27T06:37:15.443Z,996.72
2023-04-27T06:38:15.244Z,996.72
2023-04-27T06:39:15.525Z,996.78
2023-04-27T06:40:15.222Z,996.80
2023-04-27T06:41:15.323Z,996.78
2023-04-27T06:42:15.221Z,996.84
2023-04-27T06:43:15.200Z,996.82
2023-04-27T06:44:15.191Z,996.81
2023-04-27T06:45:15.187Z,996.82
2023-04-27T06:46:15.208Z,996.81
2023-04-27T06:47:15.190Z,996.84
2023-04-27T06:48:15.199Z,996.87
2023-04-27T06:49:15.538Z,996.83
2023-04-27T06:50:15.180Z,996.88
2023-04-27T06:51:15.154Z,996.85
2023-04-27T06:52:15.158Z,996.84
2023-04-27T06:53:15.128Z,996.88
2023-04-27T06:54:15.124Z,996.88
2023-04-27T06:55:15.203Z,996.90
2023-04-27T06:56:15.096Z,996.91
2023-04-27T06:57:15.125Z,996.92
2023-04-27T06:58:15.102Z,996.92
2023-04-27T06:59:15.373Z,996.88
2023-04-27T07:00:15.151Z,996.90
2023-04-27T07:01:15.079Z,996.86
2023-04-27T07:02:15.115Z,996.88
2023-04-27T07:03:15.243Z,996.87
2023-04-27T07:04:15.141Z,996.86
2023-04-27T07:05:15.049Z,996.84
2023-04-27T07:06:15.051Z,996.89
2023-04-27T07:07:15.063Z,996.91
2023-04-27T07:08:15.054Z,996.87
2023-04-27T07:09:26.641Z,996.94
2023-04-27T07:10:17.018Z,996.88
2023-04-27T07:11:15.016Z,996.89
2023-04-27T07:12:15.016Z,996.91
2023-04-27T07:13:15.152Z,996.95
2023-04-27T07:14:14.976Z,996.96
2023-04-27T07:15:14.973Z,996.98
2023-04-27T07:16:15.028Z,996.92
2023-04-27T07:17:14.980Z,996.93
2023-04-27T07:18:14.988Z,997.00
2023-04-27T07:19:15.181Z,996.96
2023-04-27T07:20:14.937Z,997.00
2023-04-27T07:21:14.927Z,996.99
2023-04-27T07:22:14.949Z,996.98
2023-04-27T07:23:14.925Z,996.99
2023-04-27T07:24:14.922Z,997.04
2023-04-27T07:25:14.899Z,997.02
2023-04-27T07:26:14.905Z,997.00
2023-04-27T07:27:14.913Z,997.03
2023-04-27T07:28:14.885Z,996.91
2023-04-27T07:29:26.613Z,996.90
2023-04-27T07:30:16.885Z,996.87
2023-04-27T07:31:14.886Z,996.97
2023-04-27T07:32:14.963Z,996.88
2023-04-27T07:33:14.848Z,996.84
2023-04-27T07:34:14.831Z,996.89
2023-04-27T07:35:14.827Z,996.90
2023-04-27T07:36:14.831Z,996.93
2023-04-27T07:37:14.849Z,996.86
2023-04-27T07:38:14.848Z,996.82
2023-04-27T07:39:15.055Z,996.80
2023-04-27T07:40:14.838Z,996.87
2023-04-27T07:41:14.793Z,996.91
2023-04-27T07:42:14.806Z,996.86
2023-04-27T07:43:14.831Z,996.85
2023-04-27T07:44:14.791Z,996.82
2023-04-27T07:45:14.849Z,996.89
2023-04-27T07:46:14.871Z,996.91
2023-04-27T07:47:14.821Z,996.88
2023-04-27T07:48:14.794Z,996.87
2023-04-27T07:49:15.205Z,996.87
2023-04-27T07:50:14.729Z,996.86
2023-04-27T07:51:14.724Z,996.95
2023-04-27T07:52:14.742Z,996.93
2023-04-27T07:53:14.716Z,996.93
2023-04-27T07:54:14.723Z,996.90
2023-04-27T07:55:14.685Z,996.83
2023-04-27T07:56:14.679Z,996.83
2023-04-27T07:57:14.717Z,996.82
2023-04-27T07:58:14.665Z,996.79
2023-04-27T07:59:15.061Z,996.83
2023-04-27T08:00:14.665Z,996.81
2023-04-27T08:01:14.768Z,996.75
2023-04-27T08:02:19.222Z,996.80
2023-04-27T08:03:16.827Z,996.80
2023-04-27T08:04:15.016Z,996.78
2023-04-27T08:05:15.144Z,996.80
2023-04-27T08:06:14.989Z,996.82
2023-04-27T08:07:15.008Z,996.75
2023-04-27T08:08:14.909Z,996.77
2023-04-27T08:09:14.897Z,996.85
2023-04-27T08:10:14.590Z,996.83
2023-04-27T08:11:14.565Z,996.79
2023-04-27T08:12:14.564Z,996.78
2023-04-27T08:13:14.588Z,996.80
2023-04-27T08:14:14.556Z,996.77
2023-04-27T08:15:14.557Z,996.78
2023-04-27T08:16:14.572Z,996.83
2023-04-27T08:17:14.545Z,996.75
2023-04-27T08:18:14.625Z,996.68
2023-04-27T08:19:14.793Z,996.72
2023-04-27T08:20:14.508Z,996.75
2023-04-27T08:21:14.524Z,996.69
2023-04-27T08:22:14.504Z,996.71
2023-04-27T08:23:14.495Z,996.74
2023-04-27T08:24:14.482Z,996.72
2023-04-27T08:25:14.473Z,996.73
2023-04-27T08:26:14.480Z,996.66
2023-04-27T08:27:14.549Z,996.74
2023-04-27T08:28:14.479Z,996.74
2023-04-27T08:29:26.382Z,996.73
2023-04-27T08:30:16.444Z,996.68
2023-04-27T08:31:14.465Z,996.72
2023-04-27T08:32:14.430Z,996.71
2023-04-27T08:33:14.596Z,996.71
2023-04-27T08:34:14.404Z,996.64
2023-04-27T08:35:14.405Z,996.61
2023-04-27T08:36:14.406Z,996.63
2023-04-27T08:37:14.394Z,996.62
2023-04-27T08:38:14.412Z,996.58
2023-04-27T08:39:14.686Z,996.58
2023-04-27T08:40:14.368Z,996.63
2023-04-27T08:41:21.496Z,996.59
2023-04-27T08:42:16.359Z,996.64
2023-04-27T08:43:14.363Z,996.58
2023-04-27T08:44:14.353Z,996.58
2023-04-27T08:45:14.340Z,996.63
2023-04-27T08:46:14.377Z,996.65
2023-04-27T08:47:14.342Z,996.58
2023-04-27T08:48:14.361Z,996.61
2023-04-27T08:49:16.573Z,996.62
2023-04-27T08:50:15.306Z,996.62
2023-04-27T08:51:14.290Z,996.58
2023-04-27T08:52:14.287Z,996.56
2023-04-27T08:53:14.313Z,996.52
2023-04-27T08:54:14.272Z,996.63
2023-04-27T08:55:16.460Z,996.56
2023-04-27T08:56:15.263Z,996.59
2023-04-27T08:57:14.278Z,996.62
2023-04-27T08:58:14.263Z,996.65
2023-04-27T08:59:14.605Z,996.67
2023-04-27T09:00:14.251Z,996.63
2023-04-27T09:01:14.229Z,996.62
2023-04-27T09:02:14.296Z,996.60
2023-04-27T09:03:14.370Z,996.64
2023-04-27T09:04:14.410Z,996.58
2023-04-27T09:05:14.410Z,996.59
2023-04-27T09:06:14.415Z,996.62
2023-04-27T09:07:14.196Z,996.62
2023-04-27T09:08:14.210Z,996.62
2023-04-27T09:09:14.454Z,996.60
2023-04-27T09:10:14.166Z,996.61
2023-04-27T09:11:15.157Z,996.66
2023-04-27T09:12:14.152Z,996.59
2023-04-27T09:13:14.170Z,996.55
2023-04-27T09:14:14.144Z,996.57
2023-04-27T09:15:14.136Z,996.58
2023-04-27T09:16:14.239Z,996.61
2023-04-27T09:17:14.128Z,996.52
2023-04-27T09:18:14.145Z,996.53
2023-04-27T09:19:14.281Z,996.60
2023-04-27T09:20:14.102Z,996.58
2023-04-27T09:21:14.173Z,996.54
2023-04-27T09:22:14.095Z,996.64
2023-04-27T09:23:14.105Z,996.63
2023-04-27T09:24:14.084Z,996.58
2023-04-27T09:25:14.089Z,996.58
2023-04-27T09:26:14.062Z,996.56
2023-04-27T09:27:14.056Z,996.53
2023-04-27T09:28:14.059Z,996.54
2023-04-27T09:29:14.274Z,996.50
2023-04-27T09:30:14.061Z,996.49
2023-04-27T09:31:14.065Z,996.61
2023-04-27T09:32:16.098Z,996.58
2023-04-27T09:33:14.124Z,996.55
2023-04-27T09:34:14.002Z,996.52
2023-04-27T09:35:14.009Z,996.52
2023-04-27T09:36:14.007Z,996.47
2023-04-27T09:37:14.010Z,996.53
2023-04-27T09:38:15.350Z,996.45
2023-04-27T09:39:14.205Z,996.47
2023-04-27T09:40:13.965Z,996.45
2023-04-27T09:41:13.951Z,996.45
2023-04-27T09:42:13.995Z,996.40
2023-04-27T09:43:13.955Z,996.40
2023-04-27T09:44:13.961Z,996.41
2023-04-27T09:45:13.946Z,996.45
2023-04-27T09:46:13.977Z,996.37
2023-04-27T09:47:13.965Z,996.44
2023-04-27T09:48:13.908Z,996.39
2023-04-27T09:49:14.071Z,996.39
2023-04-27T09:50:13.886Z,996.38
2023-04-27T09:51:13.888Z,996.35
2023-04-27T09:52:13.904Z,996.36
2023-04-27T09:53:13.895Z,996.36
2023-04-27T09:54:13.866Z,996.33
2023-04-27T09:55:13.858Z,996.40
2023-04-27T09:56:13.861Z,996.38
2023-04-27T09:57:13.861Z,996.39
2023-04-27T09:58:13.841Z,996.42
2023-04-27T09:59:14.084Z,996.41
2023-04-27T10:00:13.838Z,996.37
2023-04-27T10:01:13.854Z,996.35
2023-04-27T10:02:24.231Z,996.37
2023-04-27T10:03:15.878Z,996.40
2023-04-27T10:04:13.981Z,996.33
2023-04-27T10:05:13.829Z,996.31
2023-04-27T10:06:13.816Z,996.31
2023-04-27T10:07:13.799Z,996.31
2023-04-27T10:08:13.794Z,996.24
2023-04-27T10:09:13.988Z,996.17
2023-04-27T10:10:13.755Z,996.21
2023-04-27T10:11:13.777Z,996.17
2023-04-27T10:12:13.759Z,996.21
2023-04-27T10:13:13.740Z,996.17
2023-04-27T10:14:13.736Z,996.18
2023-04-27T10:15:13.733Z,996.24
2023-04-27T10:16:13.723Z,996.25
2023-04-27T10:17:13.770Z,996.20
2023-04-27T10:18:13.724Z,996.20
2023-04-27T10:19:14.013Z,996.08
2023-04-27T10:20:13.710Z,996.14
2023-04-27T10:21:13.691Z,996.08
2023-04-27T10:22:13.699Z,996.08
2023-04-27T10:23:13.679Z,996.11
2023-04-27T10:24:13.673Z,996.02
2023-04-27T10:25:13.688Z,996.01
2023-04-27T10:26:13.720Z,996.06
2023-04-27T10:27:13.684Z,995.97
2023-04-27T10:28:13.641Z,996.03
2023-04-27T10:29:13.770Z,995.99
2023-04-27T10:30:13.705Z,995.97
2023-04-27T10:31:13.653Z,996.06
2023-04-27T10:32:13.646Z,995.99
2023-04-27T10:33:13.627Z,995.95
2023-04-27T10:34:13.599Z,995.98
2023-04-27T10:35:13.600Z,995.97
2023-04-27T10:36:13.611Z,995.98
2023-04-27T10:37:13.601Z,995.93
2023-04-27T10:38:13.597Z,996.00
2023-04-27T10:39:13.960Z,995.91
2023-04-27T10:40:13.574Z,995.95
2023-04-27T10:41:13.590Z,995.93
2023-04-27T10:42:13.561Z,995.91
2023-04-27T10:43:13.647Z,995.85
2023-04-27T10:44:13.617Z,995.89
2023-04-27T10:45:14.448Z,995.84
2023-04-27T10:46:13.574Z,995.72
2023-04-27T10:47:13.593Z,995.80
2023-04-27T10:48:13.578Z,995.84
2023-04-27T10:49:13.784Z,995.78
2023-04-27T10:50:13.538Z,995.80
2023-04-27T10:51:13.495Z,995.80
2023-04-27T10:52:13.504Z,995.81
2023-04-27T10:53:13.502Z,995.80
2023-04-27T10:54:13.513Z,995.84
2023-04-27T10:55:13.470Z,995.84
2023-04-27T10:56:13.456Z,995.79
2023-04-27T10:57:13.480Z,995.79
2023-04-27T10:58:13.462Z,995.79
2023-04-27T10:59:13.589Z,995.82
2023-04-27T11:00:16.252Z,995.76
2023-04-27T11:01:13.471Z,995.70
2023-04-27T11:02:13.747Z,995.70
2023-04-27T11:03:14.631Z,995.71
2023-04-27T11:04:13.642Z,995.72
2023-04-27T11:05:13.441Z,995.66
2023-04-27T11:06:13.403Z,995.66
2023-04-27T11:07:13.448Z,995.67
2023-04-27T11:08:13.383Z,995.63
2023-04-27T11:09:13.402Z,995.65
2023-04-27T11:10:13.381Z,995.61
2023-04-27T11:11:14.397Z,995.60
2023-04-27T11:12:15.237Z,995.64
2023-04-27T11:13:13.367Z,995.62
2023-04-27T11:14:13.553Z,995.67
2023-04-27T11:15:13.316Z,995.61
2023-04-27T11:16:13.386Z,995.65
2023-04-27T11:17:13.329Z,995.64
2023-04-27T11:18:13.306Z,995.64
2023-04-27T11:19:13.534Z,995.67
2023-04-27T11:20:13.282Z,995.60
2023-04-27T11:21:13.297Z,995.61
2023-04-27T11:22:13.882Z,995.62
2023-04-27T11:23:13.853Z,995.59
2023-04-27T11:24:15.324Z,995.56
2023-04-27T11:25:14.265Z,995.48
2023-04-27T11:26:13.240Z,995.47
2023-04-27T11:27:13.253Z,995.55
2023-04-27T11:28:13.224Z,995.53
2023-04-27T11:29:13.371Z,995.50
2023-04-27T11:30:13.209Z,995.54
2023-04-27T11:31:13.263Z,995.54
2023-04-27T11:32:13.210Z,995.56
2023-04-27T11:33:13.255Z,995.52
2023-04-27T11:35:13.169Z,995.45
2023-04-27T11:36:14.163Z,995.48
2023-04-27T11:37:18.298Z,995.49
2023-04-27T11:38:15.141Z,995.48
2023-04-27T11:39:13.316Z,995.52
2023-04-27T11:40:13.147Z,995.44
2023-04-27T11:41:13.142Z,995.47
2023-04-27T11:42:13.159Z,995.49
2023-04-27T11:43:13.147Z,995.52
2023-04-27T11:44:13.107Z,995.46
2023-04-27T11:45:13.107Z,995.56
2023-04-27T11:46:13.168Z,995.48
2023-04-27T11:47:13.102Z,995.52
2023-04-27T11:48:13.094Z,995.52
2023-04-27T11:49:13.298Z,995.42
2023-04-27T11:50:13.064Z,995.44
2023-04-27T11:51:13.074Z,995.46
2023-04-27T11:52:13.061Z,995.47
2023-04-27T11:53:13.054Z,995.41
2023-04-27T11:54:13.263Z,995.39
2023-04-27T11:55:13.044Z,995.38
2023-04-27T11:56:13.028Z,995.41
2023-04-27T11:57:13.023Z,995.40
2023-04-27T11:58:13.077Z,995.32
2023-04-27T11:59:13.183Z,995.37
2023-04-27T12:00:12.985Z,995.37
2023-04-27T12:01:13.004Z,995.37
2023-04-27T12:02:13.000Z,995.38
2023-04-27T12:03:13.430Z,995.38
2023-04-27T12:04:13.321Z,995.38
2023-04-27T12:05:13.683Z,995.38
2023-04-27T12:06:31.861Z,995.32
2023-04-27T12:07:14.981Z,995.38
2023-04-27T12:08:13.036Z,995.43
2023-04-27T12:09:12.927Z,995.33
2023-04-27T12:10:12.923Z,995.31
2023-04-27T12:11:12.931Z,995.35
2023-04-27T12:12:12.921Z,995.35
2023-04-27T12:13:13.079Z,995.33
2023-04-27T12:14:13.132Z,995.36
2023-04-27T12:15:12.902Z,995.38
2023-04-27T12:16:12.887Z,995.36
2023-04-27T12:17:13.000Z,995.31
2023-04-27T12:18:12.910Z,995.27
2023-04-27T12:19:12.888Z,995.30
2023-04-27T12:20:12.947Z,995.25
2023-04-27T12:21:12.857Z,995.30
2023-04-27T12:22:12.895Z,995.28
2023-04-27T12:23:12.841Z,995.29
2023-04-27T12:24:13.237Z,995.30
2023-04-27T12:25:12.846Z,995.30
2023-04-27T12:26:14.996Z,995.26
2023-04-27T12:27:13.820Z,995.27
2023-04-27T12:28:12.833Z,995.25
2023-04-27T12:29:12.785Z,995.18
2023-04-27T12:30:12.884Z,995.25